createdAt,value
2023-03-15T00:01:21.579Z,4.00
2023-03-15T00:03:49.280Z,3.95
2023-03-15T00:06:17.259Z,3.71
2023-03-15T00:08:48.106Z,3.92
2023-03-15T00:11:17.056Z,3.60
2023-03-15T00:13:45.727Z,3.79
2023-03-15T00:16:18.781Z,3.79
2023-03-15T00:18:47.441Z,3.69
2023-03-15T00:21:15.250Z,3.65
2023-03-15T00:23:42.842Z,3.65
2023-03-15T00:26:10.583Z,3.53
2023-03-15T00:28:37.832Z,3.59
2023-03-15T00:31:10.219Z,3.69
2023-03-15T00:33:38.600Z,3.71
2023-03-15T00:36:08.290Z,3.75
2023-03-15T00:38:37.140Z,3.69
2023-03-15T00:41:23.751Z,3.76
2023-03-15T00:43:52.461Z,3.55
2023-03-15T00:46:20.800Z,3.57
2023-03-15T00:48:50.076Z,3.63
2023-03-15T00:51:23.933Z,3.49
2023-03-15T00:53:53.972Z,3.63
2023-03-15T00:56:24.992Z,3.80
2023-03-15T00:58:55.388Z,3.86
2023-03-15T01:01:25.949Z,3.72
2023-03-15T01:03:54.443Z,3.58
2023-03-15T01:06:24.650Z,3.49
2023-03-15T01:08:52.861Z,3.53
2023-03-15T01:11:24.546Z,3.60
2023-03-15T01:13:53.205Z,3.76
2023-03-15T01:16:22.871Z,3.84
2023-03-15T01:18:51.863Z,3.85
2023-03-15T01:21:21.700Z,3.85
2023-03-15T01:23:50.182Z,3.58
2023-03-15T01:26:18.686Z,3.59
2023-03-15T01:28:46.964Z,3.73
2023-03-15T01:31:20.746Z,3.82
2023-03-15T01:33:48.208Z,3.52
2023-03-15T01:36:16.579Z,3.52
2023-03-15T01:38:44.323Z,3.57
2023-03-15T01:41:13.257Z,3.69
2023-03-15T01:43:47.574Z,3.77
2023-03-15T01:46:24.418Z,3.84
2023-03-15T01:48:57.788Z,3.85
2023-03-15T01:51:25.712Z,3.81
2023-03-15T01:54:00.886Z,3.77
2023-03-15T01:56:30.560Z,3.74
2023-03-15T01:58:59.345Z,3.62
2023-03-15T02:01:27.442Z,3.74
2023-03-15T02:04:02.671Z,3.39
2023-03-15T02:06:35.092Z,3.42
2023-03-15T02:09:15.052Z,3.57
2023-03-15T02:11:43.684Z,3.53
2023-03-15T02:14:13.551Z,3.51
2023-03-15T02:16:41.475Z,3.60
2023-03-15T02:19:26.026Z,3.62
2023-03-15T02:22:16.434Z,3.62
2023-03-15T02:25:17.410Z,3.79
2023-03-15T02:27:45.633Z,3.72
2023-03-15T02:30:15.122Z,3.61
2023-03-15T02:32:42.723Z,3.49
2023-03-15T02:35:10.536Z,3.46
2023-03-15T02:37:37.946Z,3.57
2023-03-15T02:40:18.559Z,3.56
2023-03-15T02:42:48.793Z,3.40
2023-03-15T02:45:18.197Z,3.38
2023-03-15T02:47:47.376Z,3.27
2023-03-15T02:50:14.661Z,3.29
2023-03-15T02:52:41.928Z,3.29
2023-03-15T02:55:09.911Z,3.35
2023-03-15T02:57:37.288Z,3.19
2023-03-15T03:00:11.936Z,3.23
2023-03-15T03:02:40.318Z,3.14
2023-03-15T03:05:10.235Z,3.22
2023-03-15T03:07:37.815Z,3.08
2023-03-15T03:10:07.398Z,3.09
2023-03-15T03:12:37.267Z,3.14
2023-03-15T03:15:05.268Z,3.08
2023-03-15T03:17:37.470Z,3.11
2023-03-15T03:20:10.368Z,3.03
2023-03-15T03:22:39.151Z,3.13
2023-03-15T03:25:08.236Z,2.97
2023-03-15T03:27:36.974Z,3.08
2023-03-15T03:30:08.144Z,3.08
2023-03-15T03:32:36.071Z,3.06
2023-03-15T03:35:03.756Z,3.03
2023-03-15T03:37:36.046Z,3.06
2023-03-15T03:40:07.074Z,3.05
2023-03-15T03:42:35.612Z,3.16
2023-03-15T03:45:03.402Z,3.10
2023-03-15T03:47:31.009Z,3.16
2023-03-15T03:49:58.745Z,3.22
2023-03-15T03:52:26.732Z,3.24
2023-03-15T03:54:54.798Z,3.30
2023-03-15T03:57:22.525Z,3.22
2023-03-15T03:59:52.711Z,3.12
2023-03-15T04:02:20.128Z,3.15
2023-03-15T04:04:50.504Z,3.14
2023-03-15T04:07:18.201Z,3.22
2023-03-15T04:09:45.543Z,3.06
2023-03-15T04:12:13.691Z,3.08
2023-03-15T04:14:42.041Z,3.05
2023-03-15T04:17:10.366Z,3.01
2023-03-15T04:19:38.444Z,3.21
2023-03-15T04:22:07.028Z,2.89
2023-03-15T04:24:35.453Z,2.61
2023-03-15T04:27:04.141Z,2.79
2023-03-15T04:29:31.937Z,2.80
2023-03-15T04:32:01.738Z,2.92
2023-03-15T04:34:30.764Z,2.71
2023-03-15T04:36:58.295Z,2.64
2023-03-15T04:39:26.477Z,2.57
2023-03-15T04:41:55.753Z,2.77
2023-03-15T04:44:26.718Z,2.99
2023-03-15T04:46:55.702Z,3.01
2023-03-15T04:49:23.677Z,2.94
2023-03-15T04:51:51.356Z,2.58
2023-03-15T04:54:19.169Z,2.55
2023-03-15T04:56:49.994Z,2.75
2023-03-15T04:59:17.482Z,2.73
2023-03-15T05:01:45.523Z,2.82
2023-03-15T05:04:13.624Z,2.97
2023-03-15T05:06:42.544Z,2.90
2023-03-15T05:09:10.226Z,2.95
2023-03-15T05:11:38.245Z,3.12
2023-03-15T05:14:05.756Z,3.08
2023-03-15T05:16:33.467Z,3.11
2023-03-15T05:19:01.279Z,3.17
2023-03-15T05:21:29.821Z,3.18
2023-03-15T05:23:57.437Z,3.25
2023-03-15T05:26:26.367Z,3.23
2023-03-15T05:28:54.478Z,3.30
2023-03-15T05:31:22.632Z,3.21
2023-03-15T05:33:50.587Z,3.32
2023-03-15T05:36:20.379Z,3.50
2023-03-15T05:38:48.730Z,2.98
2023-03-15T05:41:18.393Z,3.06
2023-03-15T05:43:45.982Z,2.89
2023-03-15T05:46:13.827Z,2.90
2023-03-15T05:48:43.680Z,3.02
2023-03-15T05:51:13.377Z,3.12
2023-03-15T05:53:40.871Z,3.27
2023-03-15T05:56:09.825Z,3.54
2023-03-15T05:58:37.676Z,3.38
2023-03-15T06:01:05.568Z,3.57
2023-03-15T06:03:34.390Z,3.60
2023-03-15T06:06:03.709Z,3.43
2023-03-15T06:08:32.028Z,3.68
2023-03-15T06:11:00.886Z,3.67
2023-03-15T06:13:28.500Z,3.53
2023-03-15T06:15:56.244Z,3.97
2023-03-15T06:18:24.204Z,3.89
2023-03-15T06:20:51.931Z,4.00
2023-03-15T06:23:19.672Z,4.23
2023-03-15T06:25:47.406Z,4.45
2023-03-15T06:28:15.058Z,4.16
2023-03-15T06:30:42.760Z,3.91
2023-03-15T06:33:10.507Z,4.34
2023-03-15T06:35:37.890Z,4.73
2023-03-15T06:38:05.380Z,4.91
2023-03-15T06:40:33.074Z,5.29
2023-03-15T06:43:06.116Z,5.45
2023-03-15T06:45:34.181Z,5.53
2023-03-15T06:48:02.124Z,5.52
2023-03-15T06:50:44.186Z,5.57
2023-03-15T06:53:14.408Z,5.34
2023-03-15T06:55:41.890Z,5.06
2023-03-15T06:58:09.359Z,5.23
2023-03-15T07:00:37.606Z,5.30
2023-03-15T07:03:05.138Z,5.47
2023-03-15T07:05:32.580Z,5.49
2023-03-15T07:08:00.345Z,5.44
2023-03-15T07:10:27.760Z,5.54
2023-03-15T07:12:55.218Z,5.56
2023-03-15T07:15:23.126Z,5.67
2023-03-15T07:17:50.557Z,5.83
2023-03-15T07:20:18.057Z,5.95
2023-03-15T07:22:45.856Z,6.02
2023-03-15T07:25:13.466Z,6.11
2023-03-15T07:27:40.887Z,6.19
2023-03-15T07:30:09.985Z,5.90
2023-03-15T07:32:39.191Z,6.05
2023-03-15T07:35:07.029Z,6.23
2023-03-15T07:37:34.860Z,6.72
2023-03-15T07:40:10.040Z,6.87
2023-03-15T07:42:38.027Z,7.03
2023-03-15T07:45:07.049Z,7.19
2023-03-15T07:47:35.243Z,7.42
2023-03-15T07:50:04.101Z,7.12
2023-03-15T07:52:31.526Z,7.02
2023-03-15T07:54:59.725Z,7.00
2023-03-15T07:57:28.948Z,7.11
2023-03-15T07:59:56.371Z,7.07
2023-03-15T08:02:23.831Z,7.42
2023-03-15T08:04:51.657Z,7.85
2023-03-15T08:07:19.359Z,7.42
2023-03-15T08:09:46.692Z,7.13
2023-03-15T08:12:14.551Z,7.50
2023-03-15T08:14:41.920Z,7.68
2023-03-15T08:17:13.219Z,8.35
2023-03-15T08:19:41.126Z,8.51
2023-03-15T08:22:08.622Z,8.67
2023-03-15T08:24:36.870Z,8.90
2023-03-15T08:27:05.277Z,8.99
2023-03-15T08:29:32.664Z,8.63
2023-03-15T08:32:00.157Z,8.98
2023-03-15T08:34:28.019Z,9.39
2023-03-15T08:36:55.415Z,9.56
2023-03-15T08:39:24.207Z,9.74
2023-03-15T08:41:51.866Z,9.66
2023-03-15T08:44:19.328Z,9.83
2023-03-15T08:46:46.866Z,8.93
2023-03-15T08:49:14.617Z,9.09
2023-03-15T08:51:41.975Z,9.22
2023-03-15T08:54:09.429Z,9.63
2023-03-15T08:56:37.244Z,9.50
2023-03-15T08:59:04.570Z,9.61
2023-03-15T09:01:31.943Z,9.60
2023-03-15T09:03:59.719Z,10.10
2023-03-15T09:06:28.017Z,9.63
2023-03-15T09:08:55.686Z,9.43
2023-03-15T09:11:23.435Z,9.19
2023-03-15T09:13:51.865Z,9.29
2023-03-15T09:16:19.325Z,9.68
2023-03-15T09:18:47.029Z,9.76
2023-03-15T09:21:14.382Z,9.77
2023-03-15T09:23:41.790Z,9.80
2023-03-15T09:26:09.535Z,9.22
2023-03-15T09:28:37.215Z,9.22
2023-03-15T09:31:06.848Z,8.90
2023-03-15T09:33:34.752Z,9.11
2023-03-15T09:36:02.134Z,9.22
2023-03-15T09:38:29.648Z,9.11
2023-03-15T09:41:00.510Z,9.20
2023-03-15T09:43:48.517Z,9.33
2023-03-15T09:46:34.157Z,9.45
2023-03-15T09:49:13.986Z,9.72
2023-03-15T09:51:51.155Z,9.87
2023-03-15T09:54:25.061Z,9.86
2023-03-15T09:57:02.283Z,9.78
2023-03-15T09:59:37.726Z,9.84
2023-03-15T10:02:21.830Z,9.82
2023-03-15T10:04:56.135Z,10.08
2023-03-15T10:07:23.557Z,9.68
2023-03-15T10:09:51.419Z,9.58
2023-03-15T10:12:44.169Z,9.37
2023-03-15T10:15:38.789Z,9.20
2023-03-15T10:18:32.837Z,9.20
2023-03-15T10:21:12.047Z,9.30
2023-03-15T10:23:44.248Z,9.20
2023-03-15T10:26:19.120Z,9.08
2023-03-15T10:28:46.816Z,9.18
2023-03-15T10:31:25.852Z,8.94
2023-03-15T10:34:00.122Z,9.12
2023-03-15T10:36:27.878Z,8.98
2023-03-15T10:38:55.345Z,9.04
2023-03-15T10:41:39.234Z,9.06
2023-03-15T10:44:17.772Z,9.05
2023-03-15T10:47:07.050Z,9.09
2023-03-15T10:49:41.567Z,9.16
2023-03-15T10:52:31.943Z,9.13
2023-03-15T10:55:04.659Z,9.17
2023-03-15T10:57:37.225Z,8.83
2023-03-15T11:00:21.060Z,9.13
2023-03-15T11:02:51.160Z,9.28
2023-03-15T11:05:19.778Z,9.46
2023-03-15T11:07:58.466Z,9.56
2023-03-15T11:10:35.021Z,9.24
2023-03-15T11:13:14.650Z,9.35
2023-03-15T11:15:54.733Z,9.68
2023-03-15T11:18:33.238Z,9.87
2023-03-15T11:21:05.272Z,9.71
2023-03-15T11:23:37.201Z,9.60
2023-03-15T11:26:06.493Z,9.69
2023-03-15T11:28:37.600Z,9.68
2023-03-15T11:31:05.777Z,9.96
2023-03-15T11:33:56.546Z,9.84
2023-03-15T11:36:30.249Z,9.90
2023-03-15T11:39:02.920Z,9.80
2023-03-15T11:41:41.295Z,10.21
2023-03-15T11:44:34.158Z,10.37
2023-03-15T11:47:10.732Z,10.71
2023-03-15T11:49:48.666Z,10.76
2023-03-15T11:52:18.152Z,10.13
2023-03-15T11:54:46.393Z,10.44
2023-03-15T11:57:28.990Z,10.62
2023-03-15T11:59:57.830Z,10.43
2023-03-15T12:02:26.519Z,10.56
2023-03-15T12:04:57.079Z,10.48
2023-03-15T12:07:36.538Z,10.31
2023-03-15T12:10:04.277Z,10.63
2023-03-15T12:12:31.659Z,10.59
2023-03-15T12:15:05.578Z,10.93
2023-03-15T12:17:40.645Z,10.90
2023-03-15T12:20:14.159Z,10.58
2023-03-15T12:22:48.309Z,10.70
2023-03-15T12:25:48.855Z,10.83
2023-03-15T12:28:30.564Z,11.17
2023-03-15T12:31:02.206Z,11.02
2023-03-15T12:33:32.524Z,10.87
2023-03-15T12:36:09.929Z,10.79
2023-03-15T12:38:41.954Z,11.15
2023-03-15T12:41:37.180Z,11.08
2023-03-15T12:44:34.277Z,10.84
2023-03-15T12:47:06.643Z,10.90
2023-03-15T12:49:46.132Z,11.09
2023-03-15T12:52:16.232Z,10.80
2023-03-15T12:55:12.538Z,10.91
2023-03-15T12:57:47.961Z,10.87
2023-03-15T13:00:22.574Z,10.69
2023-03-15T13:03:16.697Z,10.64
2023-03-15T13:06:06.847Z,10.62
2023-03-15T13:08:45.363Z,10.64
2023-03-15T13:11:13.046Z,10.61
2023-03-15T13:14:21.511Z,10.67
2023-03-15T13:17:18.520Z,10.64
2023-03-15T13:19:50.510Z,10.62
2023-03-15T13:22:32.049Z,10.41
2023-03-15T13:25:05.380Z,10.33
2023-03-15T13:27:38.296Z,10.43
2023-03-15T13:30:39.579Z,10.59
2023-03-15T13:33:21.542Z,10.85
2023-03-15T13:36:01.460Z,10.46
2023-03-15T13:38:35.562Z,10.43
2023-03-15T13:41:16.220Z,10.22
2023-03-15T13:43:44.736Z,10.35
2023-03-15T13:46:12.453Z,10.22
2023-03-15T13:48:44.873Z,10.07
2023-03-15T13:51:28.028Z,9.95
2023-03-15T13:54:07.601Z,9.89
2023-03-15T13:57:03.602Z,9.73
2023-03-15T13:59:40.917Z,9.74
2023-03-15T14:02:18.155Z,10.04
2023-03-15T14:04:52.465Z,10.18
2023-03-15T14:07:38.883Z,10.35
2023-03-15T14:10:18.709Z,10.24
2023-03-15T14:12:46.434Z,10.44
2023-03-15T14:15:34.647Z,10.52
2023-03-15T14:18:17.156Z,10.45
2023-03-15T14:20:48.127Z,10.38
2023-03-15T14:23:18.203Z,10.41
2023-03-15T14:26:14.049Z,10.36
2023-03-15T14:28:42.501Z,10.52
2023-03-15T14:31:23.530Z,10.53
2023-03-15T14:34:05.209Z,10.61
2023-03-15T14:36:45.014Z,10.26
2023-03-15T14:39:19.999Z,10.54
2023-03-15T14:41:47.720Z,10.13
2023-03-15T14:44:15.194Z,10.34
2023-03-15T14:46:42.893Z,10.48
2023-03-15T14:49:22.342Z,10.71
2023-03-15T14:51:52.465Z,10.65
2023-03-15T14:54:20.382Z,10.85
2023-03-15T14:56:47.819Z,10.80
2023-03-15T14:59:15.274Z,11.03
2023-03-15T15:01:48.449Z,11.11
2023-03-15T15:04:16.244Z,10.83
2023-03-15T15:06:51.205Z,11.01
2023-03-15T15:09:28.747Z,10.90
2023-03-15T15:11:56.821Z,10.62
2023-03-15T15:14:24.672Z,10.58
2023-03-15T15:16:52.534Z,10.83
2023-03-15T15:19:20.437Z,10.73
2023-03-15T15:21:47.907Z,10.63
2023-03-15T15:24:18.649Z,10.84
2023-03-15T15:26:47.435Z,10.76
2023-03-15T15:29:16.802Z,10.62
2023-03-15T15:31:45.815Z,10.62
2023-03-15T15:34:13.763Z,10.44
2023-03-15T15:36:45.640Z,10.23
2023-03-15T15:39:24.672Z,10.29
2023-03-15T15:41:52.588Z,10.24
2023-03-15T15:44:22.784Z,10.22
2023-03-15T15:46:50.245Z,10.24
2023-03-15T15:49:19.579Z,10.15
2023-03-15T15:51:51.593Z,10.14
2023-03-15T15:54:25.279Z,10.15
2023-03-15T15:56:56.766Z,10.15
2023-03-15T15:59:27.727Z,10.06
2023-03-15T16:02:01.207Z,10.03
2023-03-15T16:04:30.539Z,10.06
2023-03-15T16:07:03.719Z,9.99
2023-03-15T16:09:36.291Z,9.92
2023-03-15T16:12:14.892Z,10.05
2023-03-15T16:14:43.089Z,9.91
2023-03-15T16:17:18.439Z,9.81
2023-03-15T16:19:46.103Z,10.00
2023-03-15T16:22:13.877Z,9.96
2023-03-15T16:24:45.541Z,9.65
2023-03-15T16:27:16.064Z,9.61
2023-03-15T16:29:47.657Z,9.82
2023-03-15T16:32:32.947Z,9.74
2023-03-15T16:35:06.055Z,9.71
2023-03-15T16:37:33.705Z,9.37
2023-03-15T16:40:01.961Z,9.31
2023-03-15T16:42:29.433Z,9.51
2023-03-15T16:44:57.192Z,9.39
2023-03-15T16:47:24.539Z,9.35
2023-03-15T16:49:51.914Z,9.33
2023-03-15T16:52:22.599Z,9.22
2023-03-15T16:54:49.996Z,9.08
2023-03-15T16:57:22.321Z,9.19
2023-03-15T16:59:50.841Z,9.23
2023-03-15T17:02:24.375Z,9.20
2023-03-15T17:04:53.186Z,9.06
2023-03-15T17:07:34.081Z,9.12
2023-03-15T17:10:08.626Z,9.00
2023-03-15T17:12:37.672Z,8.85
2023-03-15T17:15:06.459Z,8.92
2023-03-15T17:17:36.284Z,8.96
2023-03-15T17:20:10.330Z,9.02
2023-03-15T17:22:38.158Z,8.97
2023-03-15T17:25:05.850Z,9.19
2023-03-15T17:27:40.273Z,8.98
2023-03-15T17:30:23.382Z,8.96
2023-03-15T17:32:51.224Z,9.00
2023-03-15T17:35:20.275Z,9.07
2023-03-15T17:37:48.577Z,8.81
2023-03-15T17:40:29.685Z,8.93
2023-03-15T17:42:59.837Z,9.06
2023-03-15T17:45:29.867Z,8.86
2023-03-15T17:47:58.158Z,9.13
2023-03-15T17:50:28.821Z,8.94
2023-03-15T17:53:05.561Z,8.86
2023-03-15T17:55:36.320Z,8.51
2023-03-15T17:58:10.991Z,8.41
2023-03-15T18:00:39.213Z,8.36
2023-03-15T18:03:07.034Z,8.45
2023-03-15T18:05:34.406Z,8.57
2023-03-15T18:08:04.104Z,8.09
2023-03-15T18:10:37.001Z,8.38
2023-03-15T18:13:05.132Z,8.24
2023-03-15T18:15:34.172Z,8.36
2023-03-15T18:18:07.347Z,8.37
2023-03-15T18:20:37.895Z,8.36
2023-03-15T18:23:05.683Z,8.38
2023-03-15T18:25:35.488Z,8.24
2023-03-15T18:28:09.775Z,8.27
2023-03-15T18:30:37.330Z,8.48
2023-03-15T18:33:05.986Z,8.22
2023-03-15T18:35:36.653Z,8.36
2023-03-15T18:38:05.476Z,8.10
2023-03-15T18:40:34.988Z,8.19
2023-03-15T18:43:04.301Z,8.15
2023-03-15T18:45:32.808Z,8.11
2023-03-15T18:48:02.331Z,7.94
2023-03-15T18:50:30.878Z,7.90
2023-03-15T18:52:58.641Z,7.61
2023-03-15T18:55:26.943Z,7.65
2023-03-15T18:57:55.976Z,7.68
2023-03-15T19:00:26.308Z,7.72
2023-03-15T19:03:02.911Z,7.90
2023-03-15T19:05:42.046Z,7.74
2023-03-15T19:08:12.643Z,7.70
2023-03-15T19:10:40.290Z,7.57
2023-03-15T19:13:07.954Z,7.48
2023-03-15T19:15:36.401Z,7.37
2023-03-15T19:18:05.608Z,7.48
2023-03-15T19:20:35.107Z,7.55
2023-03-15T19:23:03.152Z,7.53
2023-03-15T19:25:30.694Z,7.55
2023-03-15T19:27:58.216Z,7.45
2023-03-15T19:30:27.680Z,7.56
2023-03-15T19:32:55.237Z,7.70
2023-03-15T19:35:22.638Z,7.62
2023-03-15T19:37:50.609Z,7.54
2023-03-15T19:40:19.444Z,7.54
2023-03-15T19:42:48.838Z,7.79
2023-03-15T19:45:17.746Z,7.69
2023-03-15T19:47:45.400Z,7.65
2023-03-15T19:50:14.553Z,7.70
2023-03-15T19:52:46.297Z,7.84
2023-03-15T19:55:16.397Z,7.77
2023-03-15T19:57:45.081Z,7.41
2023-03-15T20:00:17.215Z,7.32
2023-03-15T20:02:45.732Z,7.44
2023-03-15T20:05:15.507Z,7.42
2023-03-15T20:07:43.817Z,7.46
2023-03-15T20:10:12.909Z,7.49
2023-03-15T20:12:42.876Z,7.58
2023-03-15T20:15:11.943Z,7.77
2023-03-15T20:17:40.148Z,7.64
2023-03-15T20:20:11.568Z,7.47
2023-03-15T20:22:41.546Z,7.36
2023-03-15T20:25:15.342Z,7.36
2023-03-15T20:27:43.468Z,7.45
2023-03-15T20:30:12.911Z,7.50
2023-03-15T20:32:40.928Z,7.41
2023-03-15T20:35:09.705Z,7.36
2023-03-15T20:37:40.640Z,7.46
2023-03-15T20:40:11.551Z,7.34
2023-03-15T20:42:39.808Z,7.25
2023-03-15T20:45:09.797Z,7.29
2023-03-15T20:47:38.314Z,7.33
2023-03-15T20:50:07.984Z,7.38
2023-03-15T20:52:35.523Z,7.38
2023-03-15T20:55:03.884Z,7.30
2023-03-15T20:57:31.704Z,7.29
2023-03-15T20:59:59.736Z,7.41
2023-03-15T21:02:27.157Z,7.34
2023-03-15T21:04:54.942Z,7.31
2023-03-15T21:07:22.293Z,7.38
2023-03-15T21:09:49.970Z,7.17
2023-03-15T21:12:19.447Z,7.08
2023-03-15T21:14:46.826Z,7.15
2023-03-15T21:17:14.641Z,7.28
2023-03-15T21:19:42.305Z,7.49
2023-03-15T21:22:09.915Z,7.32
2023-03-15T21:24:49.440Z,7.17
2023-03-15T21:27:22.755Z,7.18
2023-03-15T21:29:50.141Z,7.21
2023-03-15T21:32:17.525Z,7.27
2023-03-15T21:34:45.261Z,7.44
2023-03-15T21:37:12.707Z,7.25
2023-03-15T21:39:40.060Z,7.21
2023-03-15T21:42:08.036Z,7.34
2023-03-15T21:44:36.455Z,7.26
2023-03-15T21:47:04.994Z,7.13
2023-03-15T21:49:32.957Z,6.84
2023-03-15T21:52:00.406Z,7.07
2023-03-15T21:54:27.939Z,6.64
2023-03-15T21:56:56.112Z,6.51
2023-03-15T21:59:29.918Z,6.09
2023-03-15T22:01:57.781Z,5.88
2023-03-15T22:04:25.523Z,5.83
2023-03-15T22:06:53.396Z,5.79
2023-03-15T22:09:23.606Z,5.41
2023-03-15T22:11:51.671Z,5.61
2023-03-15T22:14:19.272Z,5.52
2023-03-15T22:16:46.678Z,5.37
2023-03-15T22:19:14.719Z,5.22
2023-03-15T22:21:42.464Z,5.39
2023-03-15T22:24:10.812Z,5.03
2023-03-15T22:26:38.509Z,5.03
2023-03-15T22:29:05.833Z,4.92
2023-03-15T22:31:33.528Z,4.83
2023-03-15T22:34:02.953Z,4.75
2023-03-15T22:36:35.015Z,4.62
2023-03-15T22:39:03.697Z,4.66
2023-03-15T22:41:31.084Z,4.51
2023-03-15T22:43:58.360Z,4.41
2023-03-15T22:46:27.184Z,4.43
2023-03-15T22:48:54.843Z,4.27
2023-03-15T22:51:22.219Z,4.22
2023-03-15T22:53:49.941Z,4.24
2023-03-15T22:56:17.377Z,4.31
2023-03-15T22:58:44.736Z,4.38
2023-03-15T23:01:12.511Z,4.14
2023-03-15T23:03:39.950Z,4.13
2023-03-15T23:06:07.243Z,4.22
2023-03-15T23:12:35.866Z,3.93
2023-03-15T23:15:04.978Z,4.02
2023-03-15T23:17:32.654Z,3.88
2023-03-15T23:20:00.106Z,3.78
2023-03-15T23:22:27.748Z,3.90
2023-03-15T23:24:58.334Z,4.07
2023-03-15T23:27:26.284Z,3.91
2023-03-15T23:29:55.485Z,3.95
2023-03-15T23:32:27.580Z,3.89
2023-03-15T23:34:56.759Z,3.91
2023-03-15T23:37:24.945Z,4.00
2023-03-15T23:39:53.650Z,3.95
2023-03-15T23:42:26.046Z,3.96
2023-03-15T23:44:55.185Z,3.71
2023-03-15T23:47:26.178Z,3.71
2023-03-15T23:49:53.797Z,3.56
2023-03-15T23:52:25.594Z,3.64
2023-03-15T23:58:45.994Z,3.43
